sensor_id;sensor_type;location;lat;lon;timestamp;temperature;humidity
14061;DHT22;7105;43.616;1.434;2023-02-05T00:00:23;5.20;99.90
14061;DHT22;7105;43.616;1.434;2023-02-05T00:02:49;5.20;99.90
14061;DHT22;7105;43.616;1.434;2023-02-05T00:05:15;5.20;99.90
14061;DHT22;7105;43.616;1.434;2023-02-05T00:07:40;5.20;99.90
14061;DHT22;7105;43.616;1.434;2023-02-05T00:10:06;5.10;99.90
14061;DHT22;7105;43.616;1.434;2023-02-05T00:12:32;5.20;99.90
14061;DHT22;7105;43.616;1.434;2023-02-05T00:14:58;5.10;99.90
14061;DHT22;7105;43.616;1.434;2023-02-05T00:17:23;5.10;99.90
14061;DHT22;7105;43.616;1.434;2023-02-05T00:19:49;5.20;99.90
14061;DHT22;7105;43.616;1.434;2023-02-05T00:22:15;5.10;99.90
14061;DHT22;7105;43.616;1.434;2023-02-05T00:24:40;5.10;99.90
14061;DHT22;7105;43.616;1.434;2023-02-05T00:27:07;5.10;99.90
14061;DHT22;7105;43.616;1.434;2023-02-05T00:29:34;5.10;99.90
14061;DHT22;7105;43.616;1.434;2023-02-05T00:32:00;5.10;99.90
14061;DHT22;7105;43.616;1.434;2023-02-05T00:34:26;5.00;99.90
14061;DHT22;7105;43.616;1.434;2023-02-05T00:36:51;5.00;99.90
14061;DHT22;7105;43.616;1.434;2023-02-05T00:39:17;5.00;99.90
14061;DHT22;7105;43.616;1.434;2023-02-05T00:41:43;5.00;99.90
14061;DHT22;7105;43.616;1.434;2023-02-05T00:44:09;5.00;99.90
14061;DHT22;7105;43.616;1.434;2023-02-05T00:46:35;5.00;99.90
14061;DHT22;7105;43.616;1.434;2023-02-05T00:49:01;5.00;99.90
14061;DHT22;7105;43.616;1.434;2023-02-05T00:51:26;5.00;99.90
14061;DHT22;7105;43.616;1.434;2023-02-05T00:53:52;4.90;99.90
14061;DHT22;7105;43.616;1.434;2023-02-05T00:56:18;4.90;99.90
14061;DHT22;7105;43.616;1.434;2023-02-05T00:58:43;4.90;99.90
14061;DHT22;7105;43.616;1.434;2023-02-05T01:01:14;4.90;99.90
14061;DHT22;7105;43.616;1.434;2023-02-05T01:03:40;4.90;99.90
14061;DHT22;7105;43.616;1.434;2023-02-05T01:06:06;4.90;99.90
14061;DHT22;7105;43.616;1.434;2023-02-05T01:08:32;4.90;99.90
14061;DHT22;7105;43.616;1.434;2023-02-05T01:10:58;4.90;99.90
14061;DHT22;7105;43.616;1.434;2023-02-05T01:13:24;4.90;99.90
14061;DHT22;7105;43.616;1.434;2023-02-05T01:15:50;4.90;99.90
14061;DHT22;7105;43.616;1.434;2023-02-05T01:18:16;4.90;99.90
14061;DHT22;7105;43.616;1.434;2023-02-05T01:20:42;4.90;99.90
14061;DHT22;7105;43.616;1.434;2023-02-05T01:23:08;4.90;99.90
14061;DHT22;7105;43.616;1.434;2023-02-05T01:25:34;4.90;99.90
14061;DHT22;7105;43.616;1.434;2023-02-05T01:27:59;4.90;99.90
14061;DHT22;7105;43.616;1.434;2023-02-05T01:30:25;4.90;99.90
14061;DHT22;7105;43.616;1.434;2023-02-05T01:32:51;4.90;99.90
14061;DHT22;7105;43.616;1.434;2023-02-05T01:35:18;4.90;99.90
14061;DHT22;7105;43.616;1.434;2023-02-05T01:37:44;4.90;99.90
14061;DHT22;7105;43.616;1.434;2023-02-05T01:40:13;4.90;99.90
14061;DHT22;7105;43.616;1.434;2023-02-05T01:42:40;4.90;99.90
14061;DHT22;7105;43.616;1.434;2023-02-05T01:48:27;4.90;99.90
14061;DHT22;7105;43.616;1.434;2023-02-05T01:51:00;4.80;99.90
14061;DHT22;7105;43.616;1.434;2023-02-05T01:53:31;4.80;99.90
14061;DHT22;7105;43.616;1.434;2023-02-05T01:56:01;4.80;99.90
14061;DHT22;7105;43.616;1.434;2023-02-05T01:58:32;4.80;99.90
14061;DHT22;7105;43.616;1.434;2023-02-05T02:00:58;4.80;99.90
14061;DHT22;7105;43.616;1.434;2023-02-05T02:03:25;4.70;99.90
14061;DHT22;7105;43.616;1.434;2023-02-05T02:05:54;4.80;99.90
14061;DHT22;7105;43.616;1.434;2023-02-05T02:08:19;4.80;99.90
14061;DHT22;7105;43.616;1.434;2023-02-05T02:10:49;4.80;99.90
14061;DHT22;7105;43.616;1.434;2023-02-05T02:13:18;4.80;99.90
14061;DHT22;7105;43.616;1.434;2023-02-05T02:15:45;4.80;99.90
14061;DHT22;7105;43.616;1.434;2023-02-05T02:18:11;4.80;99.90
14061;DHT22;7105;43.616;1.434;2023-02-05T02:29:06;5.10;99.90
14061;DHT22;7105;43.616;1.434;2023-02-05T02:31:44;5.20;99.90
14061;DHT22;7105;43.616;1.434;2023-02-05T02:34:24;5.30;99.90
14061;DHT22;7105;43.616;1.434;2023-02-05T02:37:05;5.40;99.90
14061;DHT22;7105;43.616;1.434;2023-02-05T02:39:45;5.50;99.90
14061;DHT22;7105;43.616;1.434;2023-02-05T02:42:32;5.50;99.90
14061;DHT22;7105;43.616;1.434;2023-02-05T02:45:02;5.50;99.90
14061;DHT22;7105;43.616;1.434;2023-02-05T02:47:33;5.60;99.90
14061;DHT22;7105;43.616;1.434;2023-02-05T02:50:17;5.60;99.90
14061;DHT22;7105;43.616;1.434;2023-02-05T02:52:45;5.60;99.90
14061;DHT22;7105;43.616;1.434;2023-02-05T02:55:14;5.70;99.90
14061;DHT22;7105;43.616;1.434;2023-02-05T02:57:43;5.70;99.90
14061;DHT22;7105;43.616;1.434;2023-02-05T03:00:15;5.70;99.90
14061;DHT22;7105;43.616;1.434;2023-02-05T03:02:44;5.70;99.90
14061;DHT22;7105;43.616;1.434;2023-02-05T03:05:15;5.80;99.90
14061;DHT22;7105;43.616;1.434;2023-02-05T03:07:46;5.90;99.90
14061;DHT22;7105;43.616;1.434;2023-02-05T03:10:47;5.90;99.90
14061;DHT22;7105;43.616;1.434;2023-02-05T03:13:11;6.00;99.90
14061;DHT22;7105;43.616;1.434;2023-02-05T03:15:42;6.00;99.90
14061;DHT22;7105;43.616;1.434;2023-02-05T03:18:08;6.10;99.90
14061;DHT22;7105;43.616;1.434;2023-02-05T03:20:40;6.10;99.90
14061;DHT22;7105;43.616;1.434;2023-02-05T03:23:06;6.20;99.90
14061;DHT22;7105;43.616;1.434;2023-02-05T03:25:32;6.20;99.90
14061;DHT22;7105;43.616;1.434;2023-02-05T03:27:58;6.20;99.90
14061;DHT22;7105;43.616;1.434;2023-02-05T03:30:29;6.20;99.90
14061;DHT22;7105;43.616;1.434;2023-02-05T03:35:49;6.30;99.90
14061;DHT22;7105;43.616;1.434;2023-02-05T03:40:54;6.30;99.90
14061;DHT22;7105;43.616;1.434;2023-02-05T03:54:33;6.30;99.90
14061;DHT22;7105;43.616;1.434;2023-02-05T03:57:23;6.30;99.90
14061;DHT22;7105;43.616;1.434;2023-02-05T03:59:49;6.30;99.90
14061;DHT22;7105;43.616;1.434;2023-02-05T04:02:16;6.30;99.90
14061;DHT22;7105;43.616;1.434;2023-02-05T04:04:42;6.40;99.90
14061;DHT22;7105;43.616;1.434;2023-02-05T04:07:08;6.40;99.90
14061;DHT22;7105;43.616;1.434;2023-02-05T04:09:34;6.40;99.90
14061;DHT22;7105;43.616;1.434;2023-02-05T04:11:59;6.30;99.90
14061;DHT22;7105;43.616;1.434;2023-02-05T04:14:25;6.40;99.90
14061;DHT22;7105;43.616;1.434;2023-02-05T04:16:51;6.30;99.90
14061;DHT22;7105;43.616;1.434;2023-02-05T04:19:16;6.30;99.90
14061;DHT22;7105;43.616;1.434;2023-02-05T04:21:42;6.30;99.90
14061;DHT22;7105;43.616;1.434;2023-02-05T04:24:08;6.40;99.90
14061;DHT22;7105;43.616;1.434;2023-02-05T04:26:33;6.40;99.90
14061;DHT22;7105;43.616;1.434;2023-02-05T04:28:59;6.30;99.90
14061;DHT22;7105;43.616;1.434;2023-02-05T04:31:25;6.40;99.90
14061;DHT22;7105;43.616;1.434;2023-02-05T04:33:51;6.40;99.90
14061;DHT22;7105;43.616;1.434;2023-02-05T04:36:17;6.40;99.90
14061;DHT22;7105;43.616;1.434;2023-02-05T04:38:44;6.40;99.90
14061;DHT22;7105;43.616;1.434;2023-02-05T04:41:10;6.40;99.90
14061;DHT22;7105;43.616;1.434;2023-02-05T04:43:35;6.40;99.90
14061;DHT22;7105;43.616;1.434;2023-02-05T04:46:08;6.40;99.90
14061;DHT22;7105;43.616;1.434;2023-02-05T04:48:35;6.40;99.90
14061;DHT22;7105;43.616;1.434;2023-02-05T04:51:08;6.40;99.90
14061;DHT22;7105;43.616;1.434;2023-02-05T04:53:34;6.40;99.90
14061;DHT22;7105;43.616;1.434;2023-02-05T04:56:10;6.40;99.90
14061;DHT22;7105;43.616;1.434;2023-02-05T04:58:36;6.40;99.90
14061;DHT22;7105;43.616;1.434;2023-02-05T05:01:02;6.40;99.90
14061;DHT22;7105;43.616;1.434;2023-02-05T05:03:28;6.40;99.90
14061;DHT22;7105;43.616;1.434;2023-02-05T05:05:53;6.40;99.90
14061;DHT22;7105;43.616;1.434;2023-02-05T05:08:19;6.40;99.90
14061;DHT22;7105;43.616;1.434;2023-02-05T05:10:45;6.40;99.90
14061;DHT22;7105;43.616;1.434;2023-02-05T05:13:10;6.40;99.90
14061;DHT22;7105;43.616;1.434;2023-02-05T05:15:36;6.40;99.90
14061;DHT22;7105;43.616;1.434;2023-02-05T05:18:02;6.40;99.90
14061;DHT22;7105;43.616;1.434;2023-02-05T05:20:28;6.40;99.90
14061;DHT22;7105;43.616;1.434;2023-02-05T05:22:55;6.40;99.90
14061;DHT22;7105;43.616;1.434;2023-02-05T05:25:23;6.40;99.90
14061;DHT22;7105;43.616;1.434;2023-02-05T05:27:48;6.50;99.90
14061;DHT22;7105;43.616;1.434;2023-02-05T05:30:14;6.50;99.90
14061;DHT22;7105;43.616;1.434;2023-02-05T05:32:40;6.50;99.90
14061;DHT22;7105;43.616;1.434;2023-02-05T05:35:06;6.50;99.90
14061;DHT22;7105;43.616;1.434;2023-02-05T05:37:31;6.50;99.90
14061;DHT22;7105;43.616;1.434;2023-02-05T05:39:57;6.40;99.90
14061;DHT22;7105;43.616;1.434;2023-02-05T05:42:41;6.50;99.90
14061;DHT22;7105;43.616;1.434;2023-02-05T05:45:25;6.50;99.90
14061;DHT22;7105;43.616;1.434;2023-02-05T05:47:51;6.50;99.90
14061;DHT22;7105;43.616;1.434;2023-02-05T05:50:17;6.50;99.90
14061;DHT22;7105;43.616;1.434;2023-02-05T05:52:43;6.50;99.90
14061;DHT22;7105;43.616;1.434;2023-02-05T05:55:08;6.50;99.90
14061;DHT22;7105;43.616;1.434;2023-02-05T05:57:34;6.50;99.90
14061;DHT22;7105;43.616;1.434;2023-02-05T05:59:59;6.50;99.90
14061;DHT22;7105;43.616;1.434;2023-02-05T06:02:26;6.50;99.90
14061;DHT22;7105;43.616;1.434;2023-02-05T06:04:52;6.50;99.90
14061;DHT22;7105;43.616;1.434;2023-02-05T06:07:18;6.50;99.90
14061;DHT22;7105;43.616;1.434;2023-02-05T06:09:44;6.50;99.90
14061;DHT22;7105;43.616;1.434;2023-02-05T06:12:09;6.50;99.90
14061;DHT22;7105;43.616;1.434;2023-02-05T06:14:35;6.50;99.90
14061;DHT22;7105;43.616;1.434;2023-02-05T06:17:01;6.50;99.90
14061;DHT22;7105;43.616;1.434;2023-02-05T06:19:28;6.50;99.90
14061;DHT22;7105;43.616;1.434;2023-02-05T06:21:53;6.50;99.90
14061;DHT22;7105;43.616;1.434;2023-02-05T06:24:19;6.50;99.90
14061;DHT22;7105;43.616;1.434;2023-02-05T06:26:45;6.50;99.90
14061;DHT22;7105;43.616;1.434;2023-02-05T06:29:10;6.50;99.90
14061;DHT22;7105;43.616;1.434;2023-02-05T06:31:36;6.50;99.90
14061;DHT22;7105;43.616;1.434;2023-02-05T06:34:02;6.50;99.90
14061;DHT22;7105;43.616;1.434;2023-02-05T06:36:27;6.50;99.90
14061;DHT22;7105;43.616;1.434;2023-02-05T06:38:53;6.50;99.90
14061;DHT22;7105;43.616;1.434;2023-02-05T06:41:19;6.50;99.90
14061;DHT22;7105;43.616;1.434;2023-02-05T06:43:44;6.50;99.90
14061;DHT22;7105;43.616;1.434;2023-02-05T06:46:10;6.50;99.90
14061;DHT22;7105;43.616;1.434;2023-02-05T06:48:36;6.50;99.90
14061;DHT22;7105;43.616;1.434;2023-02-05T06:51:01;6.50;99.90
14061;DHT22;7105;43.616;1.434;2023-02-05T06:53:27;6.50;99.90
14061;DHT22;7105;43.616;1.434;2023-02-05T06:55:57;6.50;99.90
14061;DHT22;7105;43.616;1.434;2023-02-05T06:58:25;6.50;99.90
14061;DHT22;7105;43.616;1.434;2023-02-05T07:00:51;6.60;99.90
14061;DHT22;7105;43.616;1.434;2023-02-05T07:03:18;6.50;99.90
14061;DHT22;7105;43.616;1.434;2023-02-05T07:05:43;6.50;99.90
14061;DHT22;7105;43.616;1.434;2023-02-05T07:08:09;6.60;99.90
14061;DHT22;7105;43.616;1.434;2023-02-05T07:10:34;6.60;99.90
14061;DHT22;7105;43.616;1.434;2023-02-05T07:13:00;6.60;99.90
14061;DHT22;7105;43.616;1.434;2023-02-05T07:15:26;6.60;99.90
14061;DHT22;7105;43.616;1.434;2023-02-05T07:17:51;6.60;99.90
14061;DHT22;7105;43.616;1.434;2023-02-05T07:20:17;6.60;99.90
14061;DHT22;7105;43.616;1.434;2023-02-05T07:22:43;6.60;99.90
14061;DHT22;7105;43.616;1.434;2023-02-05T07:25:09;6.70;99.90
14061;DHT22;7105;43.616;1.434;2023-02-05T07:27:34;6.70;99.90
14061;DHT22;7105;43.616;1.434;2023-02-05T07:30:00;6.70;99.90
14061;DHT22;7105;43.616;1.434;2023-02-05T07:32:26;6.60;99.90
14061;DHT22;7105;43.616;1.434;2023-02-05T07:34:52;6.70;99.90
14061;DHT22;7105;43.616;1.434;2023-02-05T07:37:17;6.70;99.90
14061;DHT22;7105;43.616;1.434;2023-02-05T07:39:43;6.70;99.90
14061;DHT22;7105;43.616;1.434;2023-02-05T07:42:09;6.70;99.90
14061;DHT22;7105;43.616;1.434;2023-02-05T07:44:35;6.80;99.90
14061;DHT22;7105;43.616;1.434;2023-02-05T07:47:12;6.80;99.90
14061;DHT22;7105;43.616;1.434;2023-02-05T07:49:37;6.80;99.90
14061;DHT22;7105;43.616;1.434;2023-02-05T07:52:03;6.90;99.90
14061;DHT22;7105;43.616;1.434;2023-02-05T07:54:32;6.80;99.90
14061;DHT22;7105;43.616;1.434;2023-02-05T07:56:58;6.50;99.90
14061;DHT22;7105;43.616;1.434;2023-02-05T07:59:24;6.50;99.90
14061;DHT22;7105;43.616;1.434;2023-02-05T08:01:52;6.50;99.90
14061;DHT22;7105;43.616;1.434;2023-02-05T08:04:17;6.50;99.90
14061;DHT22;7105;43.616;1.434;2023-02-05T08:06:45;6.50;99.90
14061;DHT22;7105;43.616;1.434;2023-02-05T08:09:11;6.40;99.90
14061;DHT22;7105;43.616;1.434;2023-02-05T08:11:38;6.50;99.90
14061;DHT22;7105;43.616;1.434;2023-02-05T08:14:04;6.50;99.90
14061;DHT22;7105;43.616;1.434;2023-02-05T08:16:30;6.50;99.90
14061;DHT22;7105;43.616;1.434;2023-02-05T08:18:55;6.60;99.90
14061;DHT22;7105;43.616;1.434;2023-02-05T08:21:21;6.40;99.90
14061;DHT22;7105;43.616;1.434;2023-02-05T08:23:48;6.60;99.90
14061;DHT22;7105;43.616;1.434;2023-02-05T08:26:14;6.90;99.90
14061;DHT22;7105;43.616;1.434;2023-02-05T08:28:40;6.70;99.90
14061;DHT22;7105;43.616;1.434;2023-02-05T08:31:15;6.60;99.90
14061;DHT22;7105;43.616;1.434;2023-02-05T08:33:41;6.70;99.90
14061;DHT22;7105;43.616;1.434;2023-02-05T08:36:07;6.70;99.90
14061;DHT22;7105;43.616;1.434;2023-02-05T08:38:33;6.90;99.90
14061;DHT22;7105;43.616;1.434;2023-02-05T08:41:04;6.90;99.90
14061;DHT22;7105;43.616;1.434;2023-02-05T08:43:43;6.80;99.90
14061;DHT22;7105;43.616;1.434;2023-02-05T08:46:11;6.70;99.90
14061;DHT22;7105;43.616;1.434;2023-02-05T08:48:38;6.80;99.90
14061;DHT22;7105;43.616;1.434;2023-02-05T08:51:04;7.10;99.90
14061;DHT22;7105;43.616;1.434;2023-02-05T08:53:31;7.00;99.90
14061;DHT22;7105;43.616;1.434;2023-02-05T08:55:59;6.80;99.90
14061;DHT22;7105;43.616;1.434;2023-02-05T08:58:26;6.80;99.90
14061;DHT22;7105;43.616;1.434;2023-02-05T09:00:51;6.80;99.90
14061;DHT22;7105;43.616;1.434;2023-02-05T09:03:17;7.00;99.90
14061;DHT22;7105;43.616;1.434;2023-02-05T09:05:43;7.20;99.90
14061;DHT22;7105;43.616;1.434;2023-02-05T09:08:09;7.00;99.90
14061;DHT22;7105;43.616;1.434;2023-02-05T09:10:35;6.90;99.90
14061;DHT22;7105;43.616;1.434;2023-02-05T09:13:01;6.90;99.90
14061;DHT22;7105;43.616;1.434;2023-02-05T09:15:26;7.00;99.90
14061;DHT22;7105;43.616;1.434;2023-02-05T09:17:52;7.30;99.90
14061;DHT22;7105;43.616;1.434;2023-02-05T09:20:19;7.10;99.90
14061;DHT22;7105;43.616;1.434;2023-02-05T09:22:46;7.00;99.90
14061;DHT22;7105;43.616;1.434;2023-02-05T09:25:12;7.00;99.90
14061;DHT22;7105;43.616;1.434;2023-02-05T09:27:37;7.10;99.90
14061;DHT22;7105;43.616;1.434;2023-02-05T09:30:05;7.50;99.90
14061;DHT22;7105;43.616;1.434;2023-02-05T09:32:30;7.40;99.90
14061;DHT22;7105;43.616;1.434;2023-02-05T09:34:56;7.20;99.90
14061;DHT22;7105;43.616;1.434;2023-02-05T09:37:23;7.10;99.90
14061;DHT22;7105;43.616;1.434;2023-02-05T09:39:49;7.10;99.90
14061;DHT22;7105;43.616;1.434;2023-02-05T09:42:43;7.50;99.90
14061;DHT22;7105;43.616;1.434;2023-02-05T09:45:49;7.70;99.90
14061;DHT22;7105;43.616;1.434;2023-02-05T09:50:58;7.30;99.90
14061;DHT22;7105;43.616;1.434;2023-02-05T09:53:30;7.30;99.90
14061;DHT22;7105;43.616;1.434;2023-02-05T09:55:58;7.60;99.90
14061;DHT22;7105;43.616;1.434;2023-02-05T09:58:29;7.60;99.90
14061;DHT22;7105;43.616;1.434;2023-02-05T10:01:35;7.40;99.90
14061;DHT22;7105;43.616;1.434;2023-02-05T10:04:01;7.40;99.90
14061;DHT22;7105;43.616;1.434;2023-02-05T10:12:21;7.80;99.90
14061;DHT22;7105;43.616;1.434;2023-02-05T10:22:48;8.20;99.90
14061;DHT22;7105;43.616;1.434;2023-02-05T10:28:10;7.90;99.90
14061;DHT22;7105;43.616;1.434;2023-02-05T10:30:47;8.10;99.90
14061;DHT22;7105;43.616;1.434;2023-02-05T10:36:07;8.50;99.90
14061;DHT22;7105;43.616;1.434;2023-02-05T10:38:39;8.20;99.90
14061;DHT22;7105;43.616;1.434;2023-02-05T10:41:17;8.10;99.90
14061;DHT22;7105;43.616;1.434;2023-02-05T10:43:50;8.00;99.90
14061;DHT22;7105;43.616;1.434;2023-02-05T10:46:18;8.40;99.90
14061;DHT22;7105;43.616;1.434;2023-02-05T10:48:57;8.70;99.90
14061;DHT22;7105;43.616;1.434;2023-02-05T10:51:31;8.50;99.90
14061;DHT22;7105;43.616;1.434;2023-02-05T10:53:59;8.40;99.90
14061;DHT22;7105;43.616;1.434;2023-02-05T10:56:26;8.30;99.90
14061;DHT22;7105;43.616;1.434;2023-02-05T10:58:56;8.80;99.90
14061;DHT22;7105;43.616;1.434;2023-02-05T11:01:35;8.90;99.90
14061;DHT22;7105;43.616;1.434;2023-02-05T11:04:12;8.70;99.90
14061;DHT22;7105;43.616;1.434;2023-02-05T11:06:45;8.50;99.90
14061;DHT22;7105;43.616;1.434;2023-02-05T11:09:27;8.50;99.90
14061;DHT22;7105;43.616;1.434;2023-02-05T11:12:19;8.70;99.90
14061;DHT22;7105;43.616;1.434;2023-02-05T11:14:58;8.70;99.90
14061;DHT22;7105;43.616;1.434;2023-02-05T11:17:30;8.70;99.90
14061;DHT22;7105;43.616;1.434;2023-02-05T11:20:00;8.80;99.90
14061;DHT22;7105;43.616;1.434;2023-02-05T11:22:35;8.70;99.90
14061;DHT22;7105;43.616;1.434;2023-02-05T11:25:15;8.70;99.90
14061;DHT22;7105;43.616;1.434;2023-02-05T11:27:50;8.60;99.90
14061;DHT22;7105;43.616;1.434;2023-02-05T11:30:30;9.10;99.90
14061;DHT22;7105;43.616;1.434;2023-02-05T11:32:57;9.10;99.90
14061;DHT22;7105;43.616;1.434;2023-02-05T11:35:30;9.00;99.90
14061;DHT22;7105;43.616;1.434;2023-02-05T11:38:08;8.90;99.90
14061;DHT22;7105;43.616;1.434;2023-02-05T11:40:35;9.10;99.90
14061;DHT22;7105;43.616;1.434;2023-02-05T11:43:07;9.40;99.90
14061;DHT22;7105;43.616;1.434;2023-02-05T11:45:39;9.60;99.90
14061;DHT22;7105;43.616;1.434;2023-02-05T11:48:21;9.30;99.90
14061;DHT22;7105;43.616;1.434;2023-02-05T11:50:50;9.10;99.90
14061;DHT22;7105;43.616;1.434;2023-02-05T11:53:17;9.10;99.90
14061;DHT22;7105;43.616;1.434;2023-02-05T11:55:44;9.40;99.90
14061;DHT22;7105;43.616;1.434;2023-02-05T12:01:03;9.30;99.90
14061;DHT22;7105;43.616;1.434;2023-02-05T12:03:32;9.00;99.90
14061;DHT22;7105;43.616;1.434;2023-02-05T12:06:13;9.00;99.90
14061;DHT22;7105;43.616;1.434;2023-02-05T12:08:51;9.50;99.90
14061;DHT22;7105;43.616;1.434;2023-02-05T12:14:37;9.20;99.90
14061;DHT22;7105;43.616;1.434;2023-02-05T12:31:35;9.40;99.90
14061;DHT22;7105;43.616;1.434;2023-02-05T12:39:51;9.30;99.90
14061;DHT22;7105;43.616;1.434;2023-02-05T12:42:35;9.30;99.90
14061;DHT22;7105;43.616;1.434;2023-02-05T12:53:33;9.30;99.90
14061;DHT22;7105;43.616;1.434;2023-02-05T12:58:56;9.70;99.90
14061;DHT22;7105;43.616;1.434;2023-02-05T13:04:14;9.50;99.90
14061;DHT22;7105;43.616;1.434;2023-02-05T13:06:56;9.60;99.90
14061;DHT22;7105;43.616;1.434;2023-02-05T13:09:43;10.00;99.90
14061;DHT22;7105;43.616;1.434;2023-02-05T13:12:13;9.80;99.90
14061;DHT22;7105;43.616;1.434;2023-02-05T13:17:29;9.70;99.90
14061;DHT22;7105;43.616;1.434;2023-02-05T13:20:02;9.90;99.90
14061;DHT22;7105;43.616;1.434;2023-02-05T13:22:37;9.90;99.90
14061;DHT22;7105;43.616;1.434;2023-02-05T13:25:39;9.60;99.90
14061;DHT22;7105;43.616;1.434;2023-02-05T13:28:42;9.40;99.90
14061;DHT22;7105;43.616;1.434;2023-02-05T13:31:14;10.00;99.90
14061;DHT22;7105;43.616;1.434;2023-02-05T13:33:42;10.20;99.90
14061;DHT22;7105;43.616;1.434;2023-02-05T13:59:04;9.30;99.90
14061;DHT22;7105;43.616;1.434;2023-02-05T14:01:40;9.60;99.90
14061;DHT22;7105;43.616;1.434;2023-02-05T14:04:23;9.70;99.90
14061;DHT22;7105;43.616;1.434;2023-02-05T14:07:05;9.40;99.90
14061;DHT22;7105;43.616;1.434;2023-02-05T14:12:05;9.20;99.90
14061;DHT22;7105;43.616;1.434;2023-02-05T14:14:40;9.30;99.90
14061;DHT22;7105;43.616;1.434;2023-02-05T14:19:59;9.50;99.90
14061;DHT22;7105;43.616;1.434;2023-02-05T14:24:59;9.30;99.90
14061;DHT22;7105;43.616;1.434;2023-02-05T14:29:50;9.80;99.90
14061;DHT22;7105;43.616;1.434;2023-02-05T14:35:33;9.40;99.90
14061;DHT22;7105;43.616;1.434;2023-02-05T14:38:33;9.40;99.90
14061;DHT22;7105;43.616;1.434;2023-02-05T14:41:11;9.70;99.90
14061;DHT22;7105;43.616;1.434;2023-02-05T14:43:43;9.60;99.90
14061;DHT22;7105;43.616;1.434;2023-02-05T14:48:56;9.40;99.90
14061;DHT22;7105;43.616;1.434;2023-02-05T14:51:37;9.60;99.90
14061;DHT22;7105;43.616;1.434;2023-02-05T14:54:10;9.70;99.90
14061;DHT22;7105;43.616;1.434;2023-02-05T14:56:41;9.40;99.90
14061;DHT22;7105;43.616;1.434;2023-02-05T15:01:50;9.40;99.90
14061;DHT22;7105;43.616;1.434;2023-02-05T15:04:27;9.60;99.90
14061;DHT22;7105;43.616;1.434;2023-02-05T15:06:58;9.60;99.90
14061;DHT22;7105;43.616;1.434;2023-02-05T15:09:43;9.30;99.90
14061;DHT22;7105;43.616;1.434;2023-02-05T15:17:52;9.70;99.90
14061;DHT22;7105;43.616;1.434;2023-02-05T15:20:30;9.60;99.90
14061;DHT22;7105;43.616;1.434;2023-02-05T15:23:20;9.40;99.90
14061;DHT22;7105;43.616;1.434;2023-02-05T15:26:06;9.30;99.90
14061;DHT22;7105;43.616;1.434;2023-02-05T15:28:55;9.40;99.90
14061;DHT22;7105;43.616;1.434;2023-02-05T15:31:36;9.30;99.90
14061;DHT22;7105;43.616;1.434;2023-02-05T15:34:29;9.60;99.90
14061;DHT22;7105;43.616;1.434;2023-02-05T15:37:04;9.60;99.90
14061;DHT22;7105;43.616;1.434;2023-02-05T15:39:53;9.30;99.90
14061;DHT22;7105;43.616;1.434;2023-02-05T15:42:37;9.30;99.90
14061;DHT22;7105;43.616;1.434;2023-02-05T15:45:30;9.30;99.90
14061;DHT22;7105;43.616;1.434;2023-02-05T15:50:46;9.30;99.90
14061;DHT22;7105;43.616;1.434;2023-02-05T15:55:52;9.10;99.90
14061;DHT22;7105;43.616;1.434;2023-02-05T15:58:20;9.40;99.90
14061;DHT22;7105;43.616;1.434;2023-02-05T16:00:48;9.40;99.90
14061;DHT22;7105;43.616;1.434;2023-02-05T16:03:32;9.20;99.90
14061;DHT22;7105;43.616;1.434;2023-02-05T16:05:58;9.10;99.90
14061;DHT22;7105;43.616;1.434;2023-02-05T16:08:26;9.10;99.90
14061;DHT22;7105;43.616;1.434;2023-02-05T16:10:59;9.30;99.90
14061;DHT22;7105;43.616;1.434;2023-02-05T16:13:29;9.40;99.90
14061;DHT22;7105;43.616;1.434;2023-02-05T16:16:06;9.10;99.90
14061;DHT22;7105;43.616;1.434;2023-02-05T16:18:44;9.10;99.90
14061;DHT22;7105;43.616;1.434;2023-02-05T16:21:31;9.10;99.90
14061;DHT22;7105;43.616;1.434;2023-02-05T16:23:59;9.40;99.90
14061;DHT22;7105;43.616;1.434;2023-02-05T16:26:36;9.30;99.90
14061;DHT22;7105;43.616;1.434;2023-02-05T16:29:05;9.10;99.90
14061;DHT22;7105;43.616;1.434;2023-02-05T16:31:33;9.00;99.90
14061;DHT22;7105;43.616;1.434;2023-02-05T16:34:02;9.00;99.90
14061;DHT22;7105;43.616;1.434;2023-02-05T16:36:33;9.30;99.90
14061;DHT22;7105;43.616;1.434;2023-02-05T16:39:02;9.20;99.90
14061;DHT22;7105;43.616;1.434;2023-02-05T16:41:41;9.00;99.90
14061;DHT22;7105;43.616;1.434;2023-02-05T16:44:34;8.90;99.90
14061;DHT22;7105;43.616;1.434;2023-02-05T16:47:09;8.90;99.90
14061;DHT22;7105;43.616;1.434;2023-02-05T16:49:37;9.10;99.90
14061;DHT22;7105;43.616;1.434;2023-02-05T16:52:03;9.10;99.90
14061;DHT22;7105;43.616;1.434;2023-02-05T16:54:34;8.90;99.90
14061;DHT22;7105;43.616;1.434;2023-02-05T16:57:14;8.90;99.90
14061;DHT22;7105;43.616;1.434;2023-02-05T16:59:50;8.80;99.90
14061;DHT22;7105;43.616;1.434;2023-02-05T17:02:31;9.00;99.90
14061;DHT22;7105;43.616;1.434;2023-02-05T17:04:58;9.10;99.90
14061;DHT22;7105;43.616;1.434;2023-02-05T17:07:26;9.00;99.90
14061;DHT22;7105;43.616;1.434;2023-02-05T17:10:05;8.80;99.90
14061;DHT22;7105;43.616;1.434;2023-02-05T17:12:38;8.80;99.90
14061;DHT22;7105;43.616;1.434;2023-02-05T17:15:25;8.90;99.90
14061;DHT22;7105;43.616;1.434;2023-02-05T17:17:56;9.10;99.90
14061;DHT22;7105;43.616;1.434;2023-02-05T17:20:27;8.90;99.90
14061;DHT22;7105;43.616;1.434;2023-02-05T17:25:34;8.70;99.90
14061;DHT22;7105;43.616;1.434;2023-02-05T17:28:04;8.80;99.90
14061;DHT22;7105;43.616;1.434;2023-02-05T17:30:33;9.00;99.90
14061;DHT22;7105;43.616;1.434;2023-02-05T17:33:05;8.90;99.90
14061;DHT22;7105;43.616;1.434;2023-02-05T17:35:31;8.70;99.90
14061;DHT22;7105;43.616;1.434;2023-02-05T17:37:58;8.60;99.90
14061;DHT22;7105;43.616;1.434;2023-02-05T17:40:24;8.70;99.90
14061;DHT22;7105;43.616;1.434;2023-02-05T17:42:49;8.90;99.90
14061;DHT22;7105;43.616;1.434;2023-02-05T17:47:46;8.70;99.90
14061;DHT22;7105;43.616;1.434;2023-02-05T17:50:12;8.70;99.90
14061;DHT22;7105;43.616;1.434;2023-02-05T17:52:39;8.60;99.90
14061;DHT22;7105;43.616;1.434;2023-02-05T17:55:09;8.70;99.90
14061;DHT22;7105;43.616;1.434;2023-02-05T17:57:35;9.00;99.90
14061;DHT22;7105;43.616;1.434;2023-02-05T18:00:03;8.80;99.90
14061;DHT22;7105;43.616;1.434;2023-02-05T18:02:28;8.60;99.90
14061;DHT22;7105;43.616;1.434;2023-02-05T18:04:54;8.60;99.90
14061;DHT22;7105;43.616;1.434;2023-02-05T18:07:31;8.60;99.90
14061;DHT22;7105;43.616;1.434;2023-02-05T18:10:00;8.80;99.90
14061;DHT22;7105;43.616;1.434;2023-02-05T18:12:26;8.80;99.90
14061;DHT22;7105;43.616;1.434;2023-02-05T18:14:52;8.60;99.90
14061;DHT22;7105;43.616;1.434;2023-02-05T18:17:18;8.50;99.90
14061;DHT22;7105;43.616;1.434;2023-02-05T18:19:44;8.60;99.90
14061;DHT22;7105;43.616;1.434;2023-02-05T18:22:10;8.80;99.90
14061;DHT22;7105;43.616;1.434;2023-02-05T18:24:36;8.80;99.90
14061;DHT22;7105;43.616;1.434;2023-02-05T18:27:04;8.60;99.90
14061;DHT22;7105;43.616;1.434;2023-02-05T18:29:34;8.60;99.90
14061;DHT22;7105;43.616;1.434;2023-02-05T18:32:00;8.60;99.90
14061;DHT22;7105;43.616;1.434;2023-02-05T18:34:29;8.70;99.90
14061;DHT22;7105;43.616;1.434;2023-02-05T18:36:57;8.80;99.90
14061;DHT22;7105;43.616;1.434;2023-02-05T18:39:23;8.60;99.90
14061;DHT22;7105;43.616;1.434;2023-02-05T18:41:54;8.60;99.90
14061;DHT22;7105;43.616;1.434;2023-02-05T18:44:20;8.50;99.90
14061;DHT22;7105;43.616;1.434;2023-02-05T18:46:46;8.70;99.90
14061;DHT22;7105;43.616;1.434;2023-02-05T18:49:11;8.80;99.90
14061;DHT22;7105;43.616;1.434;2023-02-05T18:51:37;8.60;99.90